Time;durP1;ratioP1;P1;durP2;ratioP2;P2;SDS_P1;SDS_P2;PMS_P1;PMS_P2;Temp;Humidity;BMP_temperature;BMP_pressure;BME280_temperature;BME280_humidity;BME280_pressure;Samples;Min_cycle;Max_cycle;Signal;HPM_P1;HPM_P2
2024/01/02 00:00:10;;;;;;;5.00;0.97;;;;;;;;;;4970078;28;20277;-66
2024/01/02 00:02:38;;;;;;;5.13;1.03;;;;;;;;;;4969432;28;20239;-67
2024/01/02 00:05:06;;;;;;;2.77;1.20;;;;;;;;;;4969703;28;20261;-67
2024/01/02 00:07:33;;;;;;;3.63;1.20;;;;;;;;;;4969820;28;20673;-67
2024/01/02 00:10:00;;;;;;;2.30;0.77;;;;;;;;;;4970126;28;20218;-67
2024/01/02 00:12:27;;;;;;;4.60;1.10;;;;;;;;;;4969681;28;20209;-67
2024/01/02 00:14:54;;;;;;;2.57;0.90;;;;;;;;;;4969719;28;20214;-67
2024/01/02 00:17:21;;;;;;;3.90;0.87;;;;;;;;;;4969462;28;20226;-66
2024/01/02 00:19:49;;;;;;;5.93;1.40;;;;;;;;;;4969345;28;20206;-66
2024/01/02 00:22:16;;;;;;;4.37;1.10;;;;;;;;;;4969741;28;20230;-66
2024/01/02 00:24:43;;;;;;;3.50;1.07;;;;;;;;;;4969539;28;20648;-66
2024/01/02 00:27:10;;;;;;;2.63;0.90;;;;;;;;;;4969593;28;20420;-66
2024/01/02 00:29:37;;;;;;;1.33;1.00;;;;;;;;;;4969249;28;20206;-66
2024/01/02 00:32:05;;;;;;;1.67;0.70;;;;;;;;;;4969650;28;20223;-66
2024/01/02 00:34:32;;;;;;;9.30;1.47;;;;;;;;;;4969579;28;20249;-67
2024/01/02 00:37:00;;;;;;;3.20;1.07;;;;;;;;;;4969188;28;20273;-66
2024/01/02 00:39:27;;;;;;;6.30;1.50;;;;;;;;;;4969316;28;20607;-66
2024/01/02 00:41:54;;;;;;;5.10;1.07;;;;;;;;;;4969513;28;20218;-66
2024/01/02 00:44:21;;;;;;;0.90;0.60;;;;;;;;;;4968493;28;20621;-66
2024/01/02 00:46:48;;;;;;;2.33;0.77;;;;;;;;;;4968873;28;20210;-66
2024/01/02 00:49:15;;;;;;;4.73;0.80;;;;;;;;;;4969338;28;20210;-66
2024/01/02 00:51:42;;;;;;;2.70;0.90;;;;;;;;;;4968924;28;20257;-66
2024/01/02 00:54:11;;;;;;;2.63;1.20;;;;;;;;;;4968817;28;20397;-66
2024/01/02 00:56:38;;;;;;;2.90;1.30;;;;;;;;;;4968979;28;20226;-65
2024/01/02 00:59:05;;;;;;;2.90;0.90;;;;;;;;;;4969214;28;20278;-66
2024/01/02 01:01:32;;;;;;;2.40;0.97;;;;;;;;;;4968412;28;20206;-65
2024/01/02 01:03:59;;;;;;;1.77;0.80;;;;;;;;;;4967717;28;20360;-66
2024/01/02 01:06:26;;;;;;;0.93;0.93;;;;;;;;;;4965092;28;20202;-66
2024/01/02 01:08:53;;;;;;;2.77;0.77;;;;;;;;;;4969124;28;20266;-65
2024/01/02 01:11:21;;;;;;;3.13;1.10;;;;;;;;;;4968290;28;20222;-66
2024/01/02 01:13:48;;;;;;;2.20;0.80;;;;;;;;;;4968350;28;20218;-65
2024/01/02 01:16:16;;;;;;;1.70;0.53;;;;;;;;;;4968676;28;20297;-65
2024/01/02 01:18:43;;;;;;;4.43;1.37;;;;;;;;;;4968177;28;20668;-67
2024/01/02 01:21:10;;;;;;;1.53;0.90;;;;;;;;;;4968180;28;20233;-66
2024/01/02 01:23:37;;;;;;;0.60;0.60;;;;;;;;;;4968091;28;20782;-66
2024/01/02 01:26:04;;;;;;;2.87;0.90;;;;;;;;;;4968087;28;20218;-66
2024/01/02 01:28:33;;;;;;;4.80;1.23;;;;;;;;;;4968616;28;20666;-66
2024/01/02 01:31:01;;;;;;;1.63;0.77;;;;;;;;;;4968670;28;20216;-66
2024/01/02 01:33:28;;;;;;;1.50;0.80;;;;;;;;;;4967973;28;20214;-66
2024/01/02 01:35:55;;;;;;;1.67;0.73;;;;;;;;;;4968074;28;20257;-66
2024/01/02 01:38:22;;;;;;;1.60;0.90;;;;;;;;;;4968439;28;20210;-66
2024/01/02 01:40:49;;;;;;;4.20;1.03;;;;;;;;;;4968515;28;20218;-65
2024/01/02 01:43:16;;;;;;;3.13;1.13;;;;;;;;;;4967434;28;20285;-65
2024/01/02 01:45:44;;;;;;;4.03;1.13;;;;;;;;;;4968409;28;20218;-66
2024/01/02 01:48:12;;;;;;;0.83;0.83;;;;;;;;;;4968109;28;20214;-66
2024/01/02 01:50:39;;;;;;;3.17;0.97;;;;;;;;;;4967908;28;20228;-66
2024/01/02 01:53:07;;;;;;;4.37;0.83;;;;;;;;;;4967480;28;20202;-66
2024/01/02 01:55:34;;;;;;;1.33;1.00;;;;;;;;;;4968269;28;20229;-65
2024/01/02 01:58:01;;;;;;;1.27;0.80;;;;;;;;;;4967620;28;20230;-65
2024/01/02 02:00:28;;;;;;;2.70;1.00;;;;;;;;;;4967737;28;20202;-65
2024/01/02 02:02:57;;;;;;;5.77;1.07;;;;;;;;;;4967179;28;20210;-65
2024/01/02 02:05:26;;;;;;;3.57;0.73;;;;;;;;;;4967848;28;20268;-65
2024/01/02 02:07:54;;;;;;;5.03;1.00;;;;;;;;;;4968043;28;20285;-65
2024/01/02 02:10:22;;;;;;;2.40;0.97;;;;;;;;;;4967398;28;20265;-65
2024/01/02 02:12:49;;;;;;;2.07;0.90;;;;;;;;;;4968234;28;20289;-66
2024/01/02 02:15:16;;;;;;;3.50;0.93;;;;;;;;;;4967157;28;20206;-65
2024/01/02 02:17:43;;;;;;;1.50;0.70;;;;;;;;;;4967187;28;20700;-65
2024/01/02 02:20:11;;;;;;;1.43;1.00;;;;;;;;;;4967951;28;20261;-65
2024/01/02 02:22:39;;;;;;;3.50;0.80;;;;;;;;;;4968098;28;20234;-65
2024/01/02 02:25:08;;;;;;;3.30;0.83;;;;;;;;;;4967182;28;20245;-65
2024/01/02 02:27:35;;;;;;;2.00;0.90;;;;;;;;;;4968025;28;20229;-65
2024/01/02 02:30:03;;;;;;;0.80;0.60;;;;;;;;;;4967204;28;20691;-65
2024/01/02 02:32:30;;;;;;;2.10;0.90;;;;;;;;;;4967781;28;20221;-65
2024/01/02 02:34:57;;;;;;;1.30;0.90;;;;;;;;;;4967026;28;20206;-65
2024/01/02 02:37:24;;;;;;;0.77;0.77;;;;;;;;;;4967827;28;20303;-66
2024/01/02 02:39:51;;;;;;;2.60;0.80;;;;;;;;;;4967293;28;20198;-65
2024/01/02 02:42:19;;;;;;;0.33;0.33;;;;;;;;;;4967371;28;20207;-65
2024/01/02 02:44:46;;;;;;;2.60;0.80;;;;;;;;;;4967222;28;20215;-65
2024/01/02 02:47:13;;;;;;;3.40;0.60;;;;;;;;;;4966821;28;20246;-66
2024/01/02 02:49:40;;;;;;;2.30;0.70;;;;;;;;;;4967327;28;20242;-66
2024/01/02 02:52:07;;;;;;;0.77;0.77;;;;;;;;;;4966918;28;20630;-65
2024/01/02 02:54:34;;;;;;;2.23;0.77;;;;;;;;;;4967443;28;20690;-65
2024/01/02 02:57:02;;;;;;;1.50;0.37;;;;;;;;;;4967129;28;20823;-65
2024/01/02 02:59:30;;;;;;;0.63;0.63;;;;;;;;;;4967304;28;20221;-65
2024/01/02 03:01:57;;;;;;;1.80;0.53;;;;;;;;;;4967561;28;20565;-66
2024/01/02 03:04:24;;;;;;;1.17;0.70;;;;;;;;;;4967138;28;20217;-66
2024/01/02 03:06:51;;;;;;;2.70;0.60;;;;;;;;;;4968889;28;20613;-66
2024/01/02 03:09:18;;;;;;;0.57;0.57;;;;;;;;;;4970327;28;20210;-65
2024/01/02 03:11:45;;;;;;;2.93;0.60;;;;;;;;;;4970396;28;20701;-65
2024/01/02 03:14:12;;;;;;;1.27;0.60;;;;;;;;;;4970558;28;20210;-65
2024/01/02 03:16:41;;;;;;;3.03;0.53;;;;;;;;;;4969957;28;20262;-65
2024/01/02 03:19:08;;;;;;;1.70;0.60;;;;;;;;;;4964077;28;20210;-65
2024/01/02 03:21:35;;;;;;;3.47;0.40;;;;;;;;;;4970753;28;20261;-66
2024/01/02 03:24:02;;;;;;;0.40;0.40;;;;;;;;;;4970348;28;20230;-66
2024/01/02 03:26:29;;;;;;;1.47;0.57;;;;;;;;;;4970859;28;20221;-66
2024/01/02 03:28:56;;;;;;;1.60;0.63;;;;;;;;;;4970126;28;20206;-64
2024/01/02 03:31:23;;;;;;;3.83;0.50;;;;;;;;;;4970477;28;20215;-66
2024/01/02 03:33:52;;;;;;;1.33;0.50;;;;;;;;;;4970301;28;20622;-65
2024/01/02 03:36:19;;;;;;;0.30;0.30;;;;;;;;;;4969724;28;20743;-66
2024/01/02 03:38:46;;;;;;;0.53;0.53;;;;;;;;;;4969778;28;20234;-66
2024/01/02 03:41:13;;;;;;;0.60;0.50;;;;;;;;;;4970154;28;20229;-65
2024/01/02 03:43:40;;;;;;;1.23;0.40;;;;;;;;;;4970323;28;20218;-66
2024/01/02 03:46:07;;;;;;;0.33;0.33;;;;;;;;;;4970230;28;20214;-65
2024/01/02 03:48:34;;;;;;;0.37;0.30;;;;;;;;;;4969875;28;20493;-66
2024/01/02 03:51:03;;;;;;;0.30;0.30;;;;;;;;;;4970486;28;20305;-66
2024/01/02 03:53:30;;;;;;;0.37;0.37;;;;;;;;;;4970291;28;20222;-66
2024/01/02 03:55:57;;;;;;;0.73;0.40;;;;;;;;;;4969501;28;20265;-66
2024/01/02 03:58:24;;;;;;;2.40;0.30;;;;;;;;;;4969396;28;20683;-65
2024/01/02 04:00:52;;;;;;;0.20;0.20;;;;;;;;;;4970238;28;20222;-66
2024/01/02 04:03:19;;;;;;;0.40;0.40;;;;;;;;;;4969716;28;20587;-66
2024/01/02 04:05:46;;;;;;;0.37;0.30;;;;;;;;;;4969629;28;20676;-65
2024/01/02 04:08:14;;;;;;;0.83;0.30;;;;;;;;;;4969889;28;20265;-66
2024/01/02 04:10:42;;;;;;;0.30;0.30;;;;;;;;;;4969696;28;20265;-66
2024/01/02 04:13:09;;;;;;;1.17;0.27;;;;;;;;;;4970145;28;20218;-66
2024/01/02 04:15:36;;;;;;;0.30;0.30;;;;;;;;;;4969461;28;20210;-66
2024/01/02 04:18:04;;;;;;;0.50;0.50;;;;;;;;;;4968141;28;20313;-66
2024/01/02 04:20:31;;;;;;;0.33;0.23;;;;;;;;;;4969462;28;20230;-66
2024/01/02 04:22:58;;;;;;;0.23;0.23;;;;;;;;;;4969480;28;20783;-66
2024/01/02 04:25:26;;;;;;;0.70;0.30;;;;;;;;;;4969758;28;20225;-66
2024/01/02 04:27:54;;;;;;;1.50;0.37;;;;;;;;;;4969102;28;20731;-66
2024/01/02 04:30:21;;;;;;;0.30;0.30;;;;;;;;;;4968934;28;20202;-66
2024/01/02 04:32:48;;;;;;;2.50;0.57;;;;;;;;;;4968961;28;20201;-66
2024/01/02 04:35:15;;;;;;;1.23;0.37;;;;;;;;;;4969004;28;20720;-66
2024/01/02 04:37:42;;;;;;;0.30;0.30;;;;;;;;;;4969006;28;20226;-65
2024/01/02 04:40:10;;;;;;;0.30;0.30;;;;;;;;;;4968975;28;20210;-66
2024/01/02 04:42:38;;;;;;;0.37;0.37;;;;;;;;;;4969504;28;20297;-65
2024/01/02 04:45:06;;;;;;;1.23;0.27;;;;;;;;;;4969368;28;20226;-66
2024/01/02 04:47:33;;;;;;;1.73;0.40;;;;;;;;;;4969059;28;20643;-66
2024/01/02 04:50:00;;;;;;;0.47;0.47;;;;;;;;;;4968865;28;20209;-66
2024/01/02 04:52:27;;;;;;;1.67;0.20;;;;;;;;;;4969163;28;20242;-66
2024/01/02 04:54:54;;;;;;;1.03;0.40;;;;;;;;;;4968722;28;20265;-66
2024/01/02 04:57:21;;;;;;;0.50;0.30;;;;;;;;;;4968823;28;20222;-66
2024/01/02 04:59:50;;;;;;;0.20;0.20;;;;;;;;;;4967799;28;20764;-65
2024/01/02 05:02:22;;;;;;;0.57;0.30;;;;;;;;;;4968995;28;20744;-65
2024/01/02 05:04:49;;;;;;;0.20;0.20;;;;;;;;;;4968984;28;20221;-64
2024/01/02 05:07:16;;;;;;;0.30;0.30;;;;;;;;;;4968801;28;20218;-64
2024/01/02 05:09:43;;;;;;;0.40;0.40;;;;;;;;;;4968246;28;20206;-65
2024/01/02 05:12:10;;;;;;;0.40;0.40;;;;;;;;;;4968552;28;20222;-65
2024/01/02 05:14:37;;;;;;;0.30;0.30;;;;;;;;;;4968236;28;20293;-65
2024/01/02 05:17:06;;;;;;;0.47;0.20;;;;;;;;;;4968261;28;20206;-65
2024/01/02 05:19:33;;;;;;;2.00;0.40;;;;;;;;;;4968079;28;20452;-65
2024/01/02 05:22:00;;;;;;;0.40;0.30;;;;;;;;;;4968365;28;20236;-65
2024/01/02 05:24:27;;;;;;;0.97;0.30;;;;;;;;;;4968498;28;20242;-64
2024/01/02 05:26:54;;;;;;;0.57;0.30;;;;;;;;;;4968207;28;20261;-65
2024/01/02 05:29:21;;;;;;;0.30;0.20;;;;;;;;;;4967548;28;20680;-64
2024/01/02 05:31:48;;;;;;;0.20;0.20;;;;;;;;;;4968038;28;20277;-65
2024/01/02 05:34:16;;;;;;;0.73;0.33;;;;;;;;;;4968706;28;20908;-65
2024/01/02 05:36:46;;;;;;;0.20;0.20;;;;;;;;;;4968220;28;20270;-64
2024/01/02 05:39:13;;;;;;;0.20;0.20;;;;;;;;;;4967784;28;20312;-64
2024/01/02 05:41:40;;;;;;;0.40;0.40;;;;;;;;;;4968115;28;20210;-64
2024/01/02 05:44:07;;;;;;;0.30;0.30;;;;;;;;;;4968087;28;20638;-65
2024/01/02 05:46:34;;;;;;;0.57;0.30;;;;;;;;;;4968061;28;20214;-65
2024/01/02 05:49:01;;;;;;;0.37;0.37;;;;;;;;;;4967668;28;20630;-65
2024/01/02 05:51:29;;;;;;;1.30;0.20;;;;;;;;;;4968056;28;20560;-64
2024/01/02 05:53:56;;;;;;;0.23;0.23;;;;;;;;;;4968101;28;20213;-64
2024/01/02 05:56:23;;;;;;;1.33;0.20;;;;;;;;;;4967812;28;20210;-65
2024/01/02 05:58:50;;;;;;;0.43;0.40;;;;;;;;;;4967680;28;20284;-64
2024/01/02 06:01:17;;;;;;;0.93;0.30;;;;;;;;;;4968169;28;20214;-65
2024/01/02 06:03:44;;;;;;;0.17;0.17;;;;;;;;;;4967493;28;20261;-64
2024/01/02 06:06:11;;;;;;;1.07;0.40;;;;;;;;;;4968085;28;20630;-64
2024/01/02 06:08:41;;;;;;;0.30;0.30;;;;;;;;;;4967310;28;20203;-65
2024/01/02 06:11:09;;;;;;;0.90;0.20;;;;;;;;;;4967821;28;20210;-64
2024/01/02 06:13:36;;;;;;;0.87;0.27;;;;;;;;;;4967713;28;20238;-65
2024/01/02 06:16:04;;;;;;;1.40;0.30;;;;;;;;;;4967495;28;20218;-65
2024/01/02 06:18:31;;;;;;;0.30;0.30;;;;;;;;;;4967193;28;20832;-65
2024/01/02 06:20:58;;;;;;;0.87;0.27;;;;;;;;;;4967032;28;20285;-64
2024/01/02 06:23:26;;;;;;;0.20;0.20;;;;;;;;;;4967299;28;20333;-65
2024/01/02 06:25:54;;;;;;;0.53;0.30;;;;;;;;;;4967097;28;20216;-64
2024/01/02 06:28:21;;;;;;;0.40;0.40;;;;;;;;;;4967487;28;20358;-64
2024/01/02 06:30:48;;;;;;;0.30;0.30;;;;;;;;;;4967142;28;20626;-65
2024/01/02 06:33:15;;;;;;;0.30;0.30;;;;;;;;;;4967769;28;20265;-64
2024/01/02 06:35:42;;;;;;;0.63;0.33;;;;;;;;;;4967425;28;20628;-64
2024/01/02 06:38:10;;;;;;;3.83;0.30;;;;;;;;;;4967233;28;20230;-64
2024/01/02 06:40:37;;;;;;;0.40;0.40;;;;;;;;;;4963579;28;20289;-64
2024/01/02 06:43:05;;;;;;;0.30;0.30;;;;;;;;;;4971046;28;20939;-64
2024/01/02 06:45:33;;;;;;;0.53;0.30;;;;;;;;;;4971319;28;20646;-65
2024/01/02 06:48:00;;;;;;;0.13;0.13;;;;;;;;;;4970860;28;20214;-65
2024/01/02 06:50:27;;;;;;;0.30;0.20;;;;;;;;;;4970866;28;20199;-65
2024/01/02 06:52:54;;;;;;;0.20;0.20;;;;;;;;;;4971211;28;21120;-65
2024/01/02 06:55:21;;;;;;;0.70;0.20;;;;;;;;;;4971427;28;20276;-65
2024/01/02 06:57:48;;;;;;;0.30;0.30;;;;;;;;;;4970908;28;20210;-65
2024/01/02 07:00:16;;;;;;;0.23;0.23;;;;;;;;;;4970457;28;20751;-65
2024/01/02 07:02:44;;;;;;;0.33;0.20;;;;;;;;;;4970615;28;20207;-65
2024/01/02 07:05:14;;;;;;;0.67;0.20;;;;;;;;;;4971140;28;20207;-65
2024/01/02 07:07:42;;;;;;;1.00;0.40;;;;;;;;;;4970729;28;20306;-65
2024/01/02 07:10:09;;;;;;;1.10;0.30;;;;;;;;;;4970520;28;20309;-65
2024/01/02 07:12:36;;;;;;;0.27;0.20;;;;;;;;;;4970812;28;20241;-65
2024/01/02 07:15:05;;;;;;;0.33;0.33;;;;;;;;;;4970698;28;20893;-64
2024/01/02 07:17:33;;;;;;;0.13;0.13;;;;;;;;;;4970711;28;20221;-65
2024/01/02 07:20:00;;;;;;;0.20;0.20;;;;;;;;;;4970743;28;20293;-66
2024/01/02 07:22:27;;;;;;;0.33;0.20;;;;;;;;;;4968476;28;20230;-64
2024/01/02 07:24:54;;;;;;;0.20;0.20;;;;;;;;;;4970173;28;20285;-65
2024/01/02 07:27:22;;;;;;;0.53;0.40;;;;;;;;;;4970725;28;20207;-64
2024/01/02 07:29:49;;;;;;;0.20;0.20;;;;;;;;;;4970444;28;20293;-63
2024/01/02 07:32:16;;;;;;;0.30;0.23;;;;;;;;;;4970490;28;20214;-63
2024/01/02 07:34:44;;;;;;;0.40;0.40;;;;;;;;;;4969966;28;21832;-64
2024/01/02 07:37:11;;;;;;;1.90;0.40;;;;;;;;;;4959103;28;20287;-64
2024/01/02 07:39:39;;;;;;;0.77;0.77;;;;;;;;;;4969815;28;20603;-64
2024/01/02 07:42:08;;;;;;;0.63;0.63;;;;;;;;;;4970426;28;20222;-64
2024/01/02 07:44:35;;;;;;;0.20;0.20;;;;;;;;;;4973055;28;20199;-65
2024/01/02 07:47:02;;;;;;;0.30;0.30;;;;;;;;;;4953165;28;20281;-65
2024/01/02 07:49:29;;;;;;;2.23;1.90;;;;;;;;;;4957150;28;20262;-64
2024/01/02 07:51:58;;;;;;;3.07;1.67;;;;;;;;;;4951826;28;20219;-64
2024/01/02 07:54:25;;;;;;;1.00;1.00;;;;;;;;;;4971490;28;20214;-65
2024/01/02 07:56:52;;;;;;;0.43;0.43;;;;;;;;;;4973479;28;20210;-65
2024/01/02 07:59:21;;;;;;;0.40;0.40;;;;;;;;;;4969676;28;20230;-65
2024/01/02 08:01:48;;;;;;;0.47;0.47;;;;;;;;;;4969738;28;20210;-65
2024/01/02 08:04:16;;;;;;;2.10;0.40;;;;;;;;;;4970115;28;20241;-65
2024/01/02 08:06:43;;;;;;;0.43;0.40;;;;;;;;;;4972611;28;20296;-65
2024/01/02 08:09:11;;;;;;;0.20;0.20;;;;;;;;;;4985320;28;20205;-65
2024/01/02 08:11:38;;;;;;;0.27;0.27;;;;;;;;;;4989156;28;20205;-64
2024/01/02 08:14:05;;;;;;;0.10;0.10;;;;;;;;;;4976262;28;20214;-66
2024/01/02 08:16:33;;;;;;;0.40;0.40;;;;;;;;;;4969162;28;20217;-66
2024/01/02 08:19:00;;;;;;;0.30;0.30;;;;;;;;;;4969267;28;20308;-63
2024/01/02 08:21:27;;;;;;;0.10;0.10;;;;;;;;;;4969608;28;20238;-65
2024/01/02 08:23:54;;;;;;;0.30;0.30;;;;;;;;;;4969136;28;20329;-64
2024/01/02 08:26:23;;;;;;;0.20;0.20;;;;;;;;;;4969198;28;20211;-65
2024/01/02 08:28:50;;;;;;;0.20;0.20;;;;;;;;;;4968879;28;20213;-65
2024/01/02 08:31:17;;;;;;;0.20;0.20;;;;;;;;;;4969389;28;20309;-65
2024/01/02 08:33:44;;;;;;;0.40;0.40;;;;;;;;;;4969288;28;20202;-65
2024/01/02 08:36:11;;;;;;;0.47;0.47;;;;;;;;;;4969451;28;20202;-65
2024/01/02 08:38:38;;;;;;;0.10;0.10;;;;;;;;;;4968977;28;20222;-65
2024/01/02 08:41:05;;;;;;;0.20;0.20;;;;;;;;;;4969381;28;20222;-65
2024/01/02 08:43:34;;;;;;;0.10;0.10;;;;;;;;;;4969319;28;20306;-65
2024/01/02 08:46:01;;;;;;;0.17;0.10;;;;;;;;;;4968532;28;20213;-65
2024/01/02 08:48:28;;;;;;;0.03;0.03;;;;;;;;;;4968919;28;20645;-65
2024/01/02 08:50:55;;;;;;;0.00;0.00;;;;;;;;;;4968934;28;20257;-65
2024/01/02 08:53:22;;;;;;;0.40;0.20;;;;;;;;;;4968647;28;20206;-65
2024/01/02 08:55:49;;;;;;;0.03;0.03;;;;;;;;;;4965695;28;20776;-65
2024/01/02 08:58:16;;;;;;;0.20;0.20;;;;;;;;;;4968564;28;20285;-65
2024/01/02 09:00:45;;;;;;;0.20;0.10;;;;;;;;;;4968541;28;20242;-67
2024/01/02 09:03:12;;;;;;;0.00;0.00;;;;;;;;;;4968772;28;20210;-64
2024/01/02 09:05:39;;;;;;;0.00;0.00;;;;;;;;;;4967982;28;20214;-65
2024/01/02 09:08:06;;;;;;;0.00;0.00;;;;;;;;;;4967572;28;20213;-64
2024/01/02 09:10:33;;;;;;;0.00;0.00;;;;;;;;;;4968030;28;20689;-65
2024/01/02 09:13:01;;;;;;;0.17;0.03;;;;;;;;;;4965329;28;20562;-66
2024/01/02 09:15:30;;;;;;;0.50;0.17;;;;;;;;;;4968323;28;20276;-65
2024/01/02 09:17:59;;;;;;;0.10;0.10;;;;;;;;;;4968255;28;20206;-65
2024/01/02 09:20:26;;;;;;;0.00;0.00;;;;;;;;;;4968189;28;20234;-66
2024/01/02 09:22:53;;;;;;;0.10;0.10;;;;;;;;;;4968998;28;20230;-65
2024/01/02 09:25:25;;;;;;;0.00;0.00;;;;;;;;;;4967279;28;20783;-67
2024/01/02 09:27:55;;;;;;;0.00;0.00;;;;;;;;;;4968546;28;20483;-65
2024/01/02 09:30:23;;;;;;;0.10;0.10;;;;;;;;;;4966205;28;20209;-66
2024/01/02 09:32:50;;;;;;;0.37;0.00;;;;;;;;;;4968124;28;20636;-67
2024/01/02 09:35:18;;;;;;;0.10;0.10;;;;;;;;;;4968303;28;20209;-65
2024/01/02 09:37:45;;;;;;;0.10;0.10;;;;;;;;;;4968091;28;20233;-65
2024/01/02 09:40:18;;;;;;;0.07;0.07;;;;;;;;;;4967479;28;20234;-65
2024/01/02 09:42:50;;;;;;;0.00;0.00;;;;;;;;;;4968093;28;20681;-65
2024/01/02 09:45:21;;;;;;;0.00;0.00;;;;;;;;;;4967237;28;20209;-67
2024/01/02 09:47:57;;;;;;;0.10;0.10;;;;;;;;;;4967673;28;20198;-64
2024/01/02 09:50:29;;;;;;;0.10;0.10;;;;;;;;;;4968017;28;20217;-65
2024/01/02 09:53:11;;;;;;;0.10;0.10;;;;;;;;;;4967815;28;20220;-64
2024/01/02 09:55:41;;;;;;;0.10;0.10;;;;;;;;;;4967682;28;20206;-65
2024/01/02 09:58:16;;;;;;;0.10;0.10;;;;;;;;;;4967610;28;20211;-65
2024/01/02 10:00:48;;;;;;;0.67;0.00;;;;;;;;;;4967820;28;20645;-66
2024/01/02 10:03:23;;;;;;;0.20;0.20;;;;;;;;;;4967238;28;20832;-64
2024/01/02 10:05:59;;;;;;;0.13;0.13;;;;;;;;;;4950903;28;20223;-65
2024/01/02 10:08:31;;;;;;;1.03;0.10;;;;;;;;;;4966844;28;20677;-63
2024/01/02 10:11:06;;;;;;;0.20;0.20;;;;;;;;;;4967017;28;20214;-63
2024/01/02 10:13:39;;;;;;;1.57;0.60;;;;;;;;;;4967578;28;20210;-64
2024/01/02 10:16:11;;;;;;;0.50;0.20;;;;;;;;;;4956319;28;20314;-64
2024/01/02 10:18:44;;;;;;;0.10;0.10;;;;;;;;;;4971530;28;20237;-65
2024/01/02 10:21:17;;;;;;;0.40;0.40;;;;;;;;;;4971986;28;20646;-64
2024/01/02 10:23:49;;;;;;;0.43;0.40;;;;;;;;;;4971910;28;20333;-66
2024/01/02 10:26:18;;;;;;;0.30;0.30;;;;;;;;;;4972322;28;20218;-68
2024/01/02 10:28:46;;;;;;;0.20;0.20;;;;;;;;;;4972508;28;20217;-74
2024/01/02 10:31:23;;;;;;;0.10;0.10;;;;;;;;;;4965797;28;20218;-65
2024/01/02 10:33:55;;;;;;;0.20;0.20;;;;;;;;;;4960177;28;20736;-62
2024/01/02 10:36:24;;;;;;;0.10;0.10;;;;;;;;;;4971675;28;20206;-65
2024/01/02 10:38:57;;;;;;;0.20;0.20;;;;;;;;;;4971799;28;20214;-66
2024/01/02 10:41:31;;;;;;;0.10;0.10;;;;;;;;;;4971092;28;20221;-65
2024/01/02 10:44:04;;;;;;;0.27;0.20;;;;;;;;;;4970236;28;20206;-68
2024/01/02 10:46:37;;;;;;;0.23;0.20;;;;;;;;;;4971389;28;20206;-66
2024/01/02 10:49:07;;;;;;;0.10;0.10;;;;;;;;;;4971691;28;20213;-65
2024/01/02 10:51:39;;;;;;;0.43;0.37;;;;;;;;;;4965705;28;20222;-67
2024/01/02 10:54:07;;;;;;;0.60;0.20;;;;;;;;;;4966648;28;20273;-64
2024/01/02 10:56:37;;;;;;;0.20;0.20;;;;;;;;;;4971453;28;20213;-66
2024/01/02 10:59:05;;;;;;;0.10;0.10;;;;;;;;;;4971360;28;20209;-65
2024/01/02 11:01:34;;;;;;;0.13;0.13;;;;;;;;;;4971138;28;20218;-66
2024/01/02 11:04:06;;;;;;;0.27;0.27;;;;;;;;;;4971117;28;20206;-66
2024/01/02 11:06:42;;;;;;;0.30;0.30;;;;;;;;;;4971419;28;20621;-65
2024/01/02 11:09:12;;;;;;;1.10;0.13;;;;;;;;;;4970846;28;20206;-65
2024/01/02 11:11:41;;;;;;;0.13;0.13;;;;;;;;;;4970714;28;20218;-64
2024/01/02 11:14:11;;;;;;;0.13;0.13;;;;;;;;;;4967201;28;20207;-67
2024/01/02 11:16:40;;;;;;;0.10;0.10;;;;;;;;;;4970861;28;20261;-68
2024/01/02 11:19:08;;;;;;;0.10;0.10;;;;;;;;;;4970631;28;20289;-66
2024/01/02 11:21:40;;;;;;;0.10;0.10;;;;;;;;;;4970577;28;20234;-66
2024/01/02 11:24:08;;;;;;;0.20;0.20;;;;;;;;;;4970819;28;20249;-65
2024/01/02 11:26:40;;;;;;;0.20;0.20;;;;;;;;;;4969008;28;20700;-64
2024/01/02 11:29:09;;;;;;;0.10;0.10;;;;;;;;;;4968149;28;20669;-63
2024/01/02 11:31:37;;;;;;;0.10;0.10;;;;;;;;;;4969625;28;20567;-63
2024/01/02 11:34:13;;;;;;;0.10;0.10;;;;;;;;;;4970118;28;20213;-62
2024/01/02 11:36:55;;;;;;;0.00;0.00;;;;;;;;;;4970803;28;20217;-63
2024/01/02 11:39:30;;;;;;;0.50;0.10;;;;;;;;;;4970773;28;20225;-63
2024/01/02 11:42:04;;;;;;;0.43;0.10;;;;;;;;;;4969754;28;20210;-63
2024/01/02 11:44:38;;;;;;;0.17;0.17;;;;;;;;;;4970531;28;20218;-63
2024/01/02 11:47:06;;;;;;;0.10;0.10;;;;;;;;;;4962763;28;20370;-63
2024/01/02 11:49:34;;;;;;;0.10;0.10;;;;;;;;;;4979301;28;20198;-62
2024/01/02 11:52:09;;;;;;;0.13;0.13;;;;;;;;;;4969765;28;20209;-63
2024/01/02 11:54:40;;;;;;;0.10;0.10;;;;;;;;;;4965822;28;20237;-62
2024/01/02 11:57:07;;;;;;;0.17;0.17;;;;;;;;;;4969445;28;20214;-63
2024/01/02 11:59:40;;;;;;;0.10;0.10;;;;;;;;;;4970265;28;20210;-64
2024/01/02 12:02:12;;;;;;;0.10;0.10;;;;;;;;;;4970215;28;20217;-63
2024/01/02 12:04:45;;;;;;;0.10;0.10;;;;;;;;;;4969868;28;20309;-63
2024/01/02 12:07:14;;;;;;;0.10;0.10;;;;;;;;;;4969979;28;20324;-63
2024/01/02 12:09:41;;;;;;;0.10;0.10;;;;;;;;;;4969247;28;20238;-63
2024/01/02 12:12:12;;;;;;;0.10;0.10;;;;;;;;;;4969686;28;20218;-65
2024/01/02 12:14:46;;;;;;;0.00;0.00;;;;;;;;;;4966696;28;20214;-63
2024/01/02 12:17:15;;;;;;;0.10;0.10;;;;;;;;;;4968990;28;20209;-63
2024/01/02 12:19:44;;;;;;;0.07;0.07;;;;;;;;;;4970097;28;20230;-63
2024/01/02 12:22:11;;;;;;;1.60;0.20;;;;;;;;;;4969447;28;20238;-63
2024/01/02 12:24:42;;;;;;;0.10;0.10;;;;;;;;;;4969143;28;20240;-63
2024/01/02 12:27:10;;;;;;;0.60;0.50;;;;;;;;;;4966153;28;20207;-62
2024/01/02 12:29:39;;;;;;;1.70;1.60;;;;;;;;;;4969500;28;20214;-63
2024/01/02 12:32:11;;;;;;;0.10;0.10;;;;;;;;;;4968656;28;20839;-63
2024/01/02 12:34:43;;;;;;;0.20;0.20;;;;;;;;;;4969631;28;21019;-63
2024/01/02 12:37:14;;;;;;;0.30;0.30;;;;;;;;;;4969796;28;20652;-63
2024/01/02 12:39:44;;;;;;;0.30;0.20;;;;;;;;;;4966494;28;20206;-63
2024/01/02 12:42:18;;;;;;;1.20;1.20;;;;;;;;;;4966356;28;20211;-70
2024/01/02 12:44:46;;;;;;;1.30;1.30;;;;;;;;;;4968961;28;20214;-62
2024/01/02 12:47:16;;;;;;;1.20;1.20;;;;;;;;;;4968558;28;20261;-63
2024/01/02 12:49:46;;;;;;;1.43;1.33;;;;;;;;;;4968256;28;20301;-62
2024/01/02 12:52:17;;;;;;;1.10;1.00;;;;;;;;;;4968537;28;20685;-72
2024/01/02 12:54:48;;;;;;;0.77;0.63;;;;;;;;;;4967599;28;20669;-63
2024/01/02 12:57:16;;;;;;;0.40;0.40;;;;;;;;;;4966358;28;20222;-62
2024/01/02 12:59:44;;;;;;;1.30;0.43;;;;;;;;;;4968298;28;20214;-63
2024/01/02 13:02:11;;;;;;;0.63;0.40;;;;;;;;;;4968368;28;20269;-63
2024/01/02 13:04:38;;;;;;;0.40;0.40;;;;;;;;;;4967907;28;20217;-63
2024/01/02 13:07:06;;;;;;;0.53;0.53;;;;;;;;;;4968452;28;20212;-63
2024/01/02 13:09:34;;;;;;;0.20;0.20;;;;;;;;;;4968217;28;20198;-63
2024/01/02 13:12:04;;;;;;;1.17;0.40;;;;;;;;;;4968115;28;20210;-62
2024/01/02 13:14:32;;;;;;;0.30;0.30;;;;;;;;;;4968001;28;20375;-63
2024/01/02 13:16:59;;;;;;;0.90;0.30;;;;;;;;;;4968181;28;20338;-62
2024/01/02 13:19:27;;;;;;;0.60;0.60;;;;;;;;;;4968100;28;20453;-63
2024/01/02 13:21:54;;;;;;;0.57;0.47;;;;;;;;;;4966866;28;20317;-64
2024/01/02 13:24:23;;;;;;;0.40;0.40;;;;;;;;;;4965849;28;20301;-63
2024/01/02 13:26:51;;;;;;;1.07;0.20;;;;;;;;;;4967538;28;20213;-63
2024/01/02 13:29:20;;;;;;;0.20;0.20;;;;;;;;;;4968159;28;20232;-63
2024/01/02 13:31:53;;;;;;;0.20;0.20;;;;;;;;;;4968041;28;20215;-63
2024/01/02 13:34:24;;;;;;;6.23;0.30;;;;;;;;;;4968180;28;20633;-63
2024/01/02 13:36:51;;;;;;;0.10;0.10;;;;;;;;;;4968398;28;20297;-64
2024/01/02 13:39:34;;;;;;;0.27;0.17;;;;;;;;;;4967484;28;20202;-63
2024/01/02 13:42:02;;;;;;;0.20;0.20;;;;;;;;;;4967487;28;20226;-64
2024/01/02 13:44:32;;;;;;;0.20;0.20;;;;;;;;;;4967851;28;20253;-62
2024/01/02 13:46:59;;;;;;;0.10;0.10;;;;;;;;;;4967740;28;20214;-63
2024/01/02 13:49:41;;;;;;;0.83;0.17;;;;;;;;;;4968111;28;20276;-63
2024/01/02 13:52:09;;;;;;;0.57;0.20;;;;;;;;;;4967734;28;20265;-63
2024/01/02 13:54:41;;;;;;;0.17;0.17;;;;;;;;;;4967768;28;20213;-62
2024/01/02 13:57:08;;;;;;;0.10;0.10;;;;;;;;;;4967749;28;20305;-63
2024/01/02 13:59:37;;;;;;;0.17;0.17;;;;;;;;;;4967845;28;20207;-64
2024/01/02 14:02:13;;;;;;;0.13;0.10;;;;;;;;;;4967173;28;20226;-64
2024/01/02 14:04:41;;;;;;;0.27;0.10;;;;;;;;;;4967767;28;20224;-63
2024/01/02 14:07:09;;;;;;;0.30;0.20;;;;;;;;;;4967518;28;20214;-64
2024/01/02 14:09:36;;;;;;;0.10;0.10;;;;;;;;;;4967414;28;20314;-63
2024/01/02 14:12:05;;;;;;;0.20;0.20;;;;;;;;;;4967230;28;20213;-64
2024/01/02 14:14:34;;;;;;;0.73;0.10;;;;;;;;;;4967225;28;20606;-63
2024/01/02 14:17:04;;;;;;;0.20;0.20;;;;;;;;;;4967394;28;20825;-63
2024/01/02 14:19:31;;;;;;;0.20;0.10;;;;;;;;;;4967963;28;20233;-63
2024/01/02 14:22:04;;;;;;;0.30;0.20;;;;;;;;;;4967227;28;20297;-63
2024/01/02 14:24:45;;;;;;;0.10;0.10;;;;;;;;;;4967558;28;20246;-63
2024/01/02 14:27:16;;;;;;;0.10;0.10;;;;;;;;;;4967524;28;20218;-65
2024/01/02 14:29:58;;;;;;;0.40;0.20;;;;;;;;;;4967569;28;20269;-65
2024/01/02 14:32:34;;;;;;;0.10;0.10;;;;;;;;;;4967078;28;20207;-64
2024/01/02 14:35:06;;;;;;;0.20;0.20;;;;;;;;;;4967349;28;20264;-64
2024/01/02 14:37:38;;;;;;;0.13;0.13;;;;;;;;;;4966831;28;20292;-64
2024/01/02 14:40:07;;;;;;;0.10;0.10;;;;;;;;;;4967508;28;20222;-64
2024/01/02 14:42:49;;;;;;;0.30;0.20;;;;;;;;;;4966955;28;20238;-64
2024/01/02 14:45:21;;;;;;;0.10;0.10;;;;;;;;;;4967332;28;20229;-64
2024/01/02 14:47:54;;;;;;;0.40;0.40;;;;;;;;;;4967497;28;20234;-66
2024/01/02 14:50:25;;;;;;;0.40;0.40;;;;;;;;;;4967186;28;20211;-64